createdAt,value
2023-08-07T00:02:26.834Z,15.00
2023-08-07T00:04:53.874Z,14.95
2023-08-07T00:07:20.940Z,14.90
2023-08-07T00:09:47.889Z,14.86
2023-08-07T00:12:14.825Z,14.78
2023-08-07T00:14:41.765Z,14.74
2023-08-07T00:17:09.561Z,14.77
2023-08-07T00:19:36.712Z,14.75
2023-08-07T00:22:03.768Z,14.75
2023-08-07T00:24:30.733Z,14.74
2023-08-07T00:26:58.057Z,14.72
2023-08-07T00:29:25.199Z,14.79
2023-08-07T00:31:52.203Z,14.78
2023-08-07T00:34:19.274Z,14.75
2023-08-07T00:36:46.312Z,14.71
2023-08-07T00:39:13.197Z,14.77
2023-08-07T00:41:40.204Z,14.75
2023-08-07T00:44:07.499Z,14.75
2023-08-07T00:46:35.868Z,14.72
2023-08-07T00:49:04.509Z,14.68
2023-08-07T00:51:32.011Z,14.74
2023-08-07T00:54:01.782Z,14.71
2023-08-07T00:56:29.324Z,14.73
2023-08-07T00:58:56.765Z,14.71
2023-08-07T01:01:23.996Z,14.74
2023-08-07T01:03:50.988Z,14.71
2023-08-07T01:06:18.224Z,14.71
2023-08-07T01:08:47.026Z,14.70
2023-08-07T01:11:32.008Z,14.65
2023-08-07T01:14:16.987Z,14.66
2023-08-07T01:17:01.946Z,14.68
2023-08-07T01:19:30.003Z,14.66
2023-08-07T01:22:09.285Z,14.66
2023-08-07T01:24:42.764Z,14.65
2023-08-07T01:27:18.240Z,14.70
2023-08-07T01:30:15.351Z,14.72
2023-08-07T01:32:51.152Z,14.68
2023-08-07T01:35:21.696Z,14.63
2023-08-07T01:37:49.869Z,14.73
2023-08-07T01:40:17.748Z,14.71
2023-08-07T01:42:46.108Z,14.65
2023-08-07T01:45:13.056Z,14.65
2023-08-07T01:47:40.056Z,14.73
2023-08-07T01:50:07.769Z,14.72
2023-08-07T01:52:34.819Z,14.71
2023-08-07T01:55:01.732Z,14.71
2023-08-07T01:57:28.703Z,14.70
2023-08-07T01:59:55.637Z,14.71
2023-08-07T02:02:22.601Z,14.73
2023-08-07T02:04:49.731Z,14.68
2023-08-07T02:07:16.669Z,14.67
2023-08-07T02:09:43.605Z,14.66
2023-08-07T02:12:10.701Z,14.66
2023-08-07T02:14:37.674Z,14.62
2023-08-07T02:17:05.011Z,14.62
2023-08-07T02:19:32.050Z,14.63
2023-08-07T02:21:59.001Z,14.58
2023-08-07T02:24:25.961Z,14.62
2023-08-07T02:26:52.913Z,14.70
2023-08-07T02:29:20.058Z,14.68
2023-08-07T02:31:47.088Z,14.64
2023-08-07T02:34:14.005Z,14.61
2023-08-07T02:36:40.942Z,14.62
2023-08-07T02:39:08.464Z,14.62
2023-08-07T02:41:35.529Z,14.62
2023-08-07T02:44:02.502Z,14.61
2023-08-07T02:46:29.473Z,14.58
2023-08-07T02:48:56.368Z,14.59
2023-08-07T02:51:23.311Z,14.57
2023-08-07T02:53:50.211Z,14.55
2023-08-07T02:56:17.227Z,14.50
2023-08-07T02:58:44.134Z,14.48
2023-08-07T03:01:12.673Z,14.50
2023-08-07T03:03:39.649Z,14.53
2023-08-07T03:06:06.646Z,14.55
2023-08-07T03:08:33.611Z,14.52
2023-08-07T03:11:00.612Z,14.50
2023-08-07T03:13:28.256Z,14.57
2023-08-07T03:16:07.190Z,14.53
2023-08-07T03:18:34.770Z,14.47
2023-08-07T03:21:01.784Z,14.48
2023-08-07T03:23:29.456Z,14.48
2023-08-07T03:26:18.952Z,14.48
2023-08-07T03:28:51.244Z,14.46
2023-08-07T03:31:18.417Z,14.46
2023-08-07T03:33:45.462Z,14.43
2023-08-07T03:36:12.605Z,14.39
2023-08-07T03:38:39.649Z,14.39
2023-08-07T03:41:06.785Z,14.42
2023-08-07T03:43:33.734Z,14.40
2023-08-07T03:46:03.218Z,14.38
2023-08-07T03:48:31.960Z,14.33
2023-08-07T03:51:09.141Z,14.32
2023-08-07T03:53:36.176Z,14.41
2023-08-07T03:56:03.136Z,14.38
2023-08-07T03:58:30.611Z,14.33
2023-08-07T04:00:57.732Z,14.42
2023-08-07T04:03:24.795Z,14.37
2023-08-07T04:05:56.510Z,14.35
2023-08-07T04:08:24.558Z,14.37
2023-08-07T04:11:06.310Z,14.35
2023-08-07T04:13:33.665Z,14.34
2023-08-07T04:16:02.855Z,14.40
2023-08-07T04:18:29.825Z,14.41
2023-08-07T04:21:04.198Z,14.40
2023-08-07T04:23:32.576Z,14.44
2023-08-07T04:26:00.622Z,14.40
2023-08-07T04:28:30.291Z,14.39
2023-08-07T04:30:57.354Z,14.42
2023-08-07T04:33:24.322Z,14.38
2023-08-07T04:35:51.540Z,14.37
2023-08-07T04:38:18.792Z,14.38
2023-08-07T04:40:50.684Z,14.38
2023-08-07T04:43:20.974Z,14.37
2023-08-07T04:45:48.302Z,14.38
2023-08-07T04:48:16.249Z,14.36
2023-08-07T04:50:43.459Z,14.39
2023-08-07T04:53:10.706Z,14.41
2023-08-07T04:55:37.667Z,14.43
2023-08-07T04:58:04.711Z,14.45
2023-08-07T05:00:31.785Z,14.44
2023-08-07T05:02:59.163Z,14.50
2023-08-07T05:05:26.275Z,14.48
2023-08-07T05:07:56.095Z,14.51
2023-08-07T05:10:23.112Z,14.50
2023-08-07T05:12:56.077Z,14.54
2023-08-07T05:15:26.745Z,14.53
2023-08-07T05:17:54.310Z,14.53
2023-08-07T05:20:21.426Z,14.52
2023-08-07T05:22:48.912Z,14.52
2023-08-07T05:25:17.002Z,14.62
2023-08-07T05:27:44.996Z,14.65
2023-08-07T05:30:13.001Z,14.68
2023-08-07T05:32:39.993Z,14.68
2023-08-07T05:35:08.525Z,14.68
2023-08-07T05:37:36.363Z,14.72
2023-08-07T05:40:04.715Z,14.71
2023-08-07T05:42:31.691Z,14.72
2023-08-07T05:44:59.896Z,14.70
2023-08-07T05:47:27.021Z,15.84
2023-08-07T05:49:54.053Z,16.35
2023-08-07T05:52:21.611Z,16.79
2023-08-07T05:54:48.953Z,17.41
2023-08-07T05:57:15.986Z,17.23
2023-08-07T05:59:43.130Z,17.85
2023-08-07T06:02:12.139Z,18.05
2023-08-07T06:04:39.450Z,18.33
2023-08-07T06:07:06.982Z,18.21
2023-08-07T06:09:34.542Z,17.84
2023-08-07T06:12:01.520Z,17.87
2023-08-07T06:14:29.700Z,17.88
2023-08-07T06:16:59.029Z,17.75
2023-08-07T06:19:31.857Z,17.76
2023-08-07T06:22:00.751Z,17.43
2023-08-07T06:24:28.253Z,17.76
2023-08-07T06:26:55.323Z,17.85
2023-08-07T06:29:22.551Z,18.17
2023-08-07T06:31:49.705Z,17.67
2023-08-07T06:34:16.837Z,17.37
2023-08-07T06:36:44.175Z,17.93
2023-08-07T06:39:11.223Z,18.38
2023-08-07T06:41:39.158Z,18.63
2023-08-07T06:44:06.322Z,18.60
2023-08-07T06:46:33.452Z,18.63
2023-08-07T06:49:00.461Z,18.41
2023-08-07T06:51:27.738Z,18.02
2023-08-07T06:53:54.713Z,17.40
2023-08-07T06:56:21.857Z,16.43
2023-08-07T06:58:48.809Z,15.71
2023-08-07T07:01:15.883Z,15.74
2023-08-07T07:03:42.861Z,15.79
2023-08-07T07:06:09.852Z,15.91
2023-08-07T07:08:36.765Z,15.99
2023-08-07T07:11:05.397Z,16.04
2023-08-07T07:13:32.479Z,16.08
2023-08-07T07:15:59.539Z,16.15
2023-08-07T07:18:26.549Z,16.24
2023-08-07T07:20:59.800Z,16.28
2023-08-07T07:23:26.985Z,16.31
2023-08-07T07:25:54.028Z,16.38
2023-08-07T07:28:21.523Z,16.54
2023-08-07T07:30:48.544Z,16.56
2023-08-07T07:33:15.556Z,16.64
2023-08-07T07:35:42.493Z,16.74
2023-08-07T07:38:09.735Z,16.84
2023-08-07T07:40:36.692Z,16.85
2023-08-07T07:43:04.408Z,16.94
2023-08-07T07:45:31.540Z,17.13
2023-08-07T07:47:58.557Z,17.19
2023-08-07T07:50:25.902Z,17.30
2023-08-07T07:52:52.803Z,17.46
2023-08-07T07:55:19.983Z,17.35
2023-08-07T07:57:46.961Z,17.32
2023-08-07T08:00:14.712Z,17.46
2023-08-07T08:02:44.830Z,17.58
2023-08-07T08:05:13.876Z,17.61
2023-08-07T08:07:41.499Z,17.73
2023-08-07T08:10:09.913Z,17.74
2023-08-07T08:12:37.849Z,17.96
2023-08-07T08:15:05.962Z,18.18
2023-08-07T08:17:33.419Z,18.36
2023-08-07T08:20:00.689Z,18.11
2023-08-07T08:22:27.740Z,18.25
2023-08-07T08:24:54.695Z,18.24
2023-08-07T08:27:22.685Z,18.40
2023-08-07T08:29:49.592Z,18.71
2023-08-07T08:32:16.560Z,18.67
2023-08-07T08:34:43.610Z,18.77
2023-08-07T08:37:12.299Z,18.98
2023-08-07T08:39:39.384Z,18.81
2023-08-07T08:42:07.499Z,18.77
2023-08-07T08:44:40.155Z,18.71
2023-08-07T08:47:09.948Z,18.73
2023-08-07T08:49:46.850Z,18.88
2023-08-07T08:52:15.075Z,18.98
2023-08-07T08:54:42.517Z,19.34
2023-08-07T08:57:10.217Z,19.23
2023-08-07T08:59:37.443Z,19.33
2023-08-07T09:02:05.406Z,19.27
2023-08-07T09:04:32.445Z,19.22
2023-08-07T09:07:00.480Z,19.14
2023-08-07T09:09:28.396Z,19.47
2023-08-07T09:11:58.217Z,19.56
2023-08-07T09:14:32.749Z,19.44
2023-08-07T09:17:01.934Z,19.67
2023-08-07T09:19:29.136Z,19.73
2023-08-07T09:21:56.422Z,19.60
2023-08-07T09:24:23.689Z,19.69
2023-08-07T09:26:54.580Z,19.74
2023-08-07T09:29:23.206Z,19.70
2023-08-07T09:31:50.260Z,19.60
2023-08-07T09:34:21.457Z,19.54
2023-08-07T09:36:48.451Z,19.47
2023-08-07T09:39:16.039Z,19.81
2023-08-07T09:41:42.986Z,19.87
2023-08-07T09:44:12.181Z,20.15
2023-08-07T09:46:45.980Z,19.85
2023-08-07T09:49:13.503Z,19.74
2023-08-07T09:51:48.893Z,19.72
2023-08-07T09:54:15.969Z,19.59
2023-08-07T09:56:43.083Z,19.59
2023-08-07T09:59:10.165Z,19.57
2023-08-07T10:01:41.214Z,19.57
2023-08-07T10:04:08.927Z,19.55
2023-08-07T10:06:36.428Z,19.53
2023-08-07T10:09:05.012Z,19.50
2023-08-07T10:11:32.230Z,19.47
2023-08-07T10:13:59.993Z,19.45
2023-08-07T10:16:30.990Z,19.54
2023-08-07T10:18:57.972Z,19.60
2023-08-07T10:21:26.069Z,19.57
2023-08-07T10:23:56.849Z,19.46
2023-08-07T10:26:25.278Z,19.61
2023-08-07T10:28:54.473Z,19.46
2023-08-07T10:31:23.848Z,19.62
2023-08-07T10:33:51.088Z,19.45
2023-08-07T10:36:20.926Z,19.52
2023-08-07T10:38:52.505Z,19.53
2023-08-07T10:41:20.825Z,19.97
2023-08-07T10:43:49.076Z,20.23
2023-08-07T10:46:24.111Z,19.92
2023-08-07T10:49:01.216Z,19.98
2023-08-07T10:51:34.657Z,20.27
2023-08-07T10:54:03.227Z,20.33
2023-08-07T10:56:45.020Z,20.42
2023-08-07T10:59:13.470Z,20.29
2023-08-07T11:01:40.667Z,20.68
2023-08-07T11:04:13.729Z,20.91
2023-08-07T11:06:43.545Z,20.77
2023-08-07T11:09:11.661Z,20.63
2023-08-07T11:11:44.780Z,20.77
2023-08-07T11:14:18.194Z,20.82
2023-08-07T11:16:47.114Z,20.75
2023-08-07T11:19:17.070Z,21.18
2023-08-07T11:21:44.641Z,20.93
2023-08-07T11:24:16.866Z,21.36
2023-08-07T11:26:45.787Z,21.35
2023-08-07T11:29:20.362Z,21.41
2023-08-07T11:31:47.796Z,21.19
2023-08-07T11:34:14.858Z,20.99
2023-08-07T11:36:45.144Z,21.48
2023-08-07T11:39:14.349Z,21.29
2023-08-07T11:41:41.652Z,20.59
2023-08-07T11:44:11.996Z,20.89
2023-08-07T11:46:39.864Z,21.04
2023-08-07T11:49:06.983Z,21.42
2023-08-07T11:51:34.259Z,21.15
2023-08-07T11:54:02.022Z,21.23
2023-08-07T11:56:29.276Z,21.32
2023-08-07T11:58:58.103Z,21.41
2023-08-07T12:01:27.551Z,21.13
2023-08-07T12:04:10.635Z,21.16
2023-08-07T12:06:40.369Z,21.05
2023-08-07T12:09:13.808Z,21.27
2023-08-07T12:11:40.963Z,21.52
2023-08-07T12:14:08.013Z,21.53
2023-08-07T12:16:36.192Z,21.64
2023-08-07T12:19:05.128Z,22.09
2023-08-07T12:21:34.309Z,21.69
2023-08-07T12:24:01.285Z,21.67
2023-08-07T12:26:28.372Z,21.72
2023-08-07T12:28:55.886Z,21.67
2023-08-07T12:31:23.100Z,21.43
2023-08-07T12:33:50.540Z,21.42
2023-08-07T12:36:20.407Z,22.31
2023-08-07T12:38:48.117Z,21.81
2023-08-07T12:43:45.360Z,22.10
2023-08-07T12:48:42.117Z,21.97
2023-08-07T12:51:09.126Z,21.87
2023-08-07T12:53:36.248Z,22.41
2023-08-07T12:56:04.738Z,22.27
2023-08-07T12:58:31.874Z,22.14
2023-08-07T13:00:59.204Z,22.05
2023-08-07T13:03:26.242Z,22.45
2023-08-07T13:05:53.241Z,22.58
2023-08-07T13:08:20.221Z,22.93
2023-08-07T13:10:49.972Z,22.97
2023-08-07T13:13:17.519Z,22.79
2023-08-07T13:15:44.512Z,22.91
2023-08-07T13:18:11.901Z,22.86
2023-08-07T13:20:38.957Z,23.19
2023-08-07T13:23:07.737Z,23.20
2023-08-07T13:25:34.940Z,22.94
2023-08-07T13:28:05.344Z,22.32
2023-08-07T13:30:36.726Z,22.71
2023-08-07T13:33:04.717Z,22.75
2023-08-07T13:35:33.911Z,22.49
2023-08-07T13:38:01.076Z,22.48
2023-08-07T13:40:28.056Z,22.42
2023-08-07T13:42:54.979Z,22.80
2023-08-07T13:45:21.996Z,22.86
2023-08-07T13:47:49.260Z,22.50
2023-08-07T13:50:16.693Z,22.68
2023-08-07T13:52:43.682Z,22.65
2023-08-07T13:55:11.099Z,22.98
2023-08-07T13:57:38.252Z,22.70
2023-08-07T14:00:06.325Z,22.71
2023-08-07T14:02:35.966Z,22.57
2023-08-07T14:05:03.697Z,22.60
2023-08-07T14:07:30.746Z,22.40
2023-08-07T14:09:57.764Z,22.97
2023-08-07T14:12:24.736Z,23.05
2023-08-07T14:14:51.750Z,23.16
2023-08-07T14:17:18.750Z,22.93
2023-08-07T14:19:45.831Z,22.63
2023-08-07T14:22:13.101Z,22.56
2023-08-07T14:24:40.584Z,22.87
2023-08-07T14:27:07.571Z,22.88
2023-08-07T14:29:34.885Z,22.87
2023-08-07T14:32:02.111Z,22.85
2023-08-07T14:34:29.138Z,22.62
2023-08-07T14:36:56.154Z,22.21
2023-08-07T14:39:24.543Z,22.27
2023-08-07T14:41:53.261Z,22.35
2023-08-07T14:44:20.404Z,22.71
2023-08-07T14:46:47.612Z,22.66
2023-08-07T14:49:14.926Z,22.55
2023-08-07T14:51:42.048Z,22.66
2023-08-07T14:54:08.993Z,22.52
2023-08-07T14:56:36.005Z,22.61
2023-08-07T14:59:03.003Z,22.40
2023-08-07T15:01:30.137Z,22.50
2023-08-07T15:03:58.465Z,22.32
2023-08-07T15:06:25.475Z,22.13
2023-08-07T15:08:52.490Z,21.96
2023-08-07T15:11:19.505Z,22.31
2023-08-07T15:13:46.534Z,22.67
2023-08-07T15:16:13.632Z,22.48
2023-08-07T15:18:41.960Z,22.32
2023-08-07T15:21:09.409Z,22.28
2023-08-07T15:23:36.460Z,22.06
2023-08-07T15:26:03.677Z,22.08
2023-08-07T15:28:30.624Z,22.35
2023-08-07T15:30:57.738Z,22.51
2023-08-07T15:33:25.147Z,22.23
2023-08-07T15:35:55.703Z,22.64
2023-08-07T15:38:23.261Z,22.45
2023-08-07T15:40:50.307Z,22.23
2023-08-07T15:43:17.690Z,22.02
2023-08-07T15:45:52.481Z,21.98
2023-08-07T15:48:21.086Z,21.92
2023-08-07T15:50:48.187Z,21.90
2023-08-07T15:53:15.526Z,21.75
2023-08-07T15:55:42.968Z,21.83
2023-08-07T15:58:09.984Z,21.64
2023-08-07T16:00:37.216Z,21.46
2023-08-07T16:03:06.824Z,21.72
2023-08-07T16:05:38.742Z,21.79
2023-08-07T16:08:09.372Z,21.82
2023-08-07T16:10:38.561Z,21.97
2023-08-07T16:13:05.603Z,21.69
2023-08-07T16:15:32.923Z,21.84
2023-08-07T16:18:01.104Z,21.66
2023-08-07T16:20:28.384Z,21.92
2023-08-07T16:22:56.251Z,21.84
2023-08-07T16:25:23.467Z,21.58
2023-08-07T16:27:51.400Z,21.56
2023-08-07T16:30:18.853Z,21.51
2023-08-07T16:32:46.012Z,21.26
2023-08-07T16:35:13.992Z,21.25
2023-08-07T16:37:41.279Z,21.24
2023-08-07T16:40:09.181Z,21.43
2023-08-07T16:42:36.174Z,21.53
2023-08-07T16:45:05.001Z,21.78
2023-08-07T16:47:32.021Z,21.64
2023-08-07T16:49:59.019Z,21.67
2023-08-07T16:52:27.286Z,21.95
2023-08-07T16:54:55.488Z,21.74
2023-08-07T16:57:23.054Z,21.80
2023-08-07T16:59:50.062Z,21.73
2023-08-07T17:02:17.174Z,21.84
2023-08-07T17:04:44.472Z,21.88
2023-08-07T17:07:11.874Z,21.64
2023-08-07T17:09:38.859Z,21.65
2023-08-07T17:12:06.649Z,21.56
2023-08-07T17:14:33.920Z,21.25
2023-08-07T17:17:01.182Z,21.19
2023-08-07T17:19:28.361Z,21.15
2023-08-07T17:21:55.362Z,21.03
2023-08-07T17:24:22.358Z,20.94
2023-08-07T17:26:49.278Z,20.87
2023-08-07T17:29:16.296Z,20.80
2023-08-07T17:31:43.337Z,20.68
2023-08-07T17:34:10.863Z,20.77
2023-08-07T17:36:37.990Z,20.72
2023-08-07T17:39:05.993Z,20.75
2023-08-07T17:41:32.901Z,20.71
2023-08-07T17:43:59.908Z,20.58
2023-08-07T17:46:26.939Z,20.58
2023-08-07T17:48:54.018Z,20.54
2023-08-07T17:51:21.263Z,20.45
2023-08-07T17:53:48.399Z,20.38
2023-08-07T17:56:15.344Z,20.49
2023-08-07T17:58:42.312Z,20.42
2023-08-07T18:01:09.830Z,20.32
2023-08-07T18:03:37.875Z,20.32
2023-08-07T18:06:04.884Z,20.33
2023-08-07T18:08:31.948Z,20.26
2023-08-07T18:10:58.977Z,20.27
2023-08-07T18:13:26.024Z,20.20
2023-08-07T18:15:53.063Z,20.20
2023-08-07T18:18:20.059Z,20.12
2023-08-07T18:20:47.118Z,20.09
2023-08-07T18:23:15.541Z,20.05
2023-08-07T18:25:42.657Z,19.97
2023-08-07T18:28:09.781Z,19.91
2023-08-07T18:30:36.901Z,19.92
2023-08-07T18:33:04.581Z,19.85
2023-08-07T18:35:31.924Z,19.85
2023-08-07T18:37:58.993Z,19.81
2023-08-07T18:40:25.911Z,19.91
2023-08-07T18:42:52.941Z,19.96
2023-08-07T18:45:19.942Z,19.99
2023-08-07T18:47:47.036Z,19.98
2023-08-07T18:50:14.054Z,19.90
2023-08-07T18:52:41.007Z,19.81
2023-08-07T18:55:08.672Z,19.78
2023-08-07T18:57:35.728Z,19.66
2023-08-07T19:00:03.683Z,19.53
2023-08-07T19:02:30.784Z,19.47
2023-08-07T19:04:57.837Z,19.40
2023-08-07T19:07:24.843Z,19.34
2023-08-07T19:09:51.859Z,19.24
2023-08-07T19:12:18.949Z,19.17
2023-08-07T19:14:45.894Z,19.06
2023-08-07T19:17:12.880Z,19.03
2023-08-07T19:19:39.906Z,18.96
2023-08-07T19:22:06.894Z,18.89
2023-08-07T19:24:33.866Z,18.79
2023-08-07T19:27:01.064Z,18.66
2023-08-07T19:29:28.218Z,18.64
2023-08-07T19:31:55.217Z,18.56
2023-08-07T19:34:23.176Z,18.54
2023-08-07T19:36:51.413Z,18.50
2023-08-07T19:39:19.026Z,18.36
2023-08-07T19:41:46.595Z,18.34
2023-08-07T19:44:13.557Z,18.30
2023-08-07T19:46:40.517Z,18.18
2023-08-07T19:49:08.648Z,18.10
2023-08-07T19:51:36.695Z,18.03
2023-08-07T19:54:03.765Z,18.00
2023-08-07T19:56:34.211Z,17.97
2023-08-07T19:59:05.418Z,17.87
2023-08-07T20:01:33.399Z,17.85
2023-08-07T20:04:01.038Z,17.80
2023-08-07T20:06:28.399Z,17.73
2023-08-07T20:08:55.915Z,17.64
2023-08-07T20:11:22.957Z,17.56
2023-08-07T20:13:49.981Z,17.45
2023-08-07T20:16:16.921Z,17.48
2023-08-07T20:18:43.892Z,17.44
2023-08-07T20:21:10.904Z,17.37
2023-08-07T20:23:37.900Z,17.34
2023-08-07T20:26:04.906Z,17.28
2023-08-07T20:28:31.895Z,17.26
2023-08-07T20:30:58.950Z,17.23
2023-08-07T20:33:25.982Z,17.15
2023-08-07T20:35:52.916Z,17.13
2023-08-07T20:38:19.846Z,17.08
2023-08-07T20:40:46.842Z,17.08
2023-08-07T20:43:13.797Z,17.08
2023-08-07T20:45:41.054Z,17.09
2023-08-07T20:48:08.233Z,17.00
2023-08-07T20:50:35.268Z,17.01
2023-08-07T20:53:02.219Z,17.00
2023-08-07T20:55:29.154Z,17.03
2023-08-07T20:57:56.129Z,16.94
2023-08-07T21:00:23.114Z,16.95
2023-08-07T21:02:50.086Z,16.94
2023-08-07T21:05:17.101Z,16.96
2023-08-07T21:07:44.128Z,16.96
2023-08-07T21:10:12.683Z,16.94
2023-08-07T21:12:39.746Z,16.92
2023-08-07T21:15:07.745Z,16.91
2023-08-07T21:17:34.720Z,16.89
2023-08-07T21:20:01.799Z,16.83
2023-08-07T21:22:28.966Z,16.84
2023-08-07T21:24:55.954Z,16.86
2023-08-07T21:27:24.015Z,16.80
2023-08-07T21:29:51.182Z,16.77
2023-08-07T21:32:18.173Z,16.73
2023-08-07T21:34:45.101Z,16.72
2023-08-07T21:37:13.754Z,16.71
2023-08-07T21:39:40.948Z,16.64
2023-08-07T21:42:08.442Z,16.60
2023-08-07T21:44:35.422Z,16.60
2023-08-07T21:47:02.743Z,16.59
2023-08-07T21:49:29.702Z,16.59
2023-08-07T21:51:57.213Z,16.57
2023-08-07T21:54:24.402Z,16.59
2023-08-07T21:56:51.514Z,16.52
2023-08-07T21:59:18.480Z,16.56
2023-08-07T22:01:47.319Z,16.50
2023-08-07T22:04:14.373Z,16.49
2023-08-07T22:06:41.793Z,16.42
2023-08-07T22:09:09.189Z,16.37
2023-08-07T22:11:36.420Z,16.36
2023-08-07T22:14:03.668Z,16.28
2023-08-07T22:16:30.729Z,16.27
2023-08-07T22:18:57.973Z,16.19
2023-08-07T22:21:24.944Z,16.22
2023-08-07T22:23:52.636Z,16.21
2023-08-07T22:26:19.717Z,16.18
2023-08-07T22:28:46.701Z,16.15
2023-08-07T22:31:13.767Z,16.13
2023-08-07T22:33:40.869Z,16.10
2023-08-07T22:36:12.501Z,16.13
2023-08-07T22:38:40.489Z,16.06
2023-08-07T22:41:08.054Z,16.06
2023-08-07T22:43:35.123Z,16.05
2023-08-07T22:46:02.279Z,16.01
2023-08-07T22:48:29.382Z,15.98
2023-08-07T22:50:56.405Z,16.01
2023-08-07T22:53:23.373Z,16.06
2023-08-07T22:55:50.319Z,15.99
2023-08-07T22:58:17.406Z,15.99
2023-08-07T23:00:44.408Z,15.99
2023-08-07T23:03:11.534Z,15.93
2023-08-07T23:05:38.705Z,15.87
2023-08-07T23:08:06.444Z,15.87
2023-08-07T23:10:33.487Z,15.73
2023-08-07T23:13:00.441Z,15.68
2023-08-07T23:15:27.472Z,15.69
2023-08-07T23:17:54.491Z,15.59
2023-08-07T23:20:21.562Z,15.62
2023-08-07T23:22:48.514Z,15.56
2023-08-07T23:25:16.301Z,15.55
2023-08-07T23:27:43.821Z,15.52
2023-08-07T23:30:11.231Z,15.51
2023-08-07T23:32:38.374Z,15.48
2023-08-07T23:35:05.709Z,15.42
2023-08-07T23:37:32.635Z,15.41
2023-08-07T23:39:59.704Z,15.36
2023-08-07T23:42:26.726Z,15.36
2023-08-07T23:44:53.639Z,15.34
2023-08-07T23:47:20.636Z,15.37
2023-08-07T23:49:47.597Z,15.42
2023-08-07T23:52:14.586Z,15.35
2023-08-07T23:54:41.550Z,15.38
2023-08-07T23:57:08.544Z,15.36
2023-08-07T23:59:35.490Z,15.35
